Time;durP1;ratioP1;P1;durP2;ratioP2;P2;SDS_P1;SDS_P2;PMS_P1;PMS_P2;Temp;Humidity;BMP_temperature;BMP_pressure;BME280_temperature;BME280_humidity;BME280_pressure;Samples;Min_cycle;Max_cycle;Signal;HPM_P1;HPM_P2
2021/05/28 00:01:46;;;;;;;;;;;20.00;61.60;;;;;;5052073;28;1910;-71
2021/05/28 00:04:12;;;;;;;;;;;20.00;61.70;;;;;;5052707;28;1073;-71
2021/05/28 00:06:37;;;;;;;;;;;20.00;61.70;;;;;;5052975;28;1213;-70
2021/05/28 00:09:03;;;;;;;;;;;20.00;61.70;;;;;;5036096;28;1262;-70
2021/05/28 00:11:29;;;;;;;;;;;20.00;61.60;;;;;;5054139;28;1083;-71
2021/05/28 00:13:54;;;;;;;;;;;20.00;61.70;;;;;;5053966;28;1166;-70
2021/05/28 00:16:19;;;;;;;;;;;20.00;61.70;;;;;;5052731;28;1244;-70
2021/05/28 00:18:45;;;;;;;;;;;20.00;61.70;;;;;;5047743;28;1165;-71
2021/05/28 00:21:10;;;;;;;;;;;20.00;61.70;;;;;;5048786;28;1894;-70
2021/05/28 00:23:36;;;;;;;;;;;20.00;61.70;;;;;;5053133;28;1076;-71
2021/05/28 00:26:01;;;;;;;;;;;20.00;61.70;;;;;;5052943;28;1223;-70
2021/05/28 00:28:26;;;;;;;;;;;20.00;61.80;;;;;;5053878;28;1083;-70
2021/05/28 00:30:52;;;;;;;;;;;20.00;61.70;;;;;;5053379;28;1055;-71
2021/05/28 00:33:17;;;;;;;;;;;20.00;61.80;;;;;;5052936;28;1079;-70
2021/05/28 00:35:43;;;;;;;;;;;20.00;61.80;;;;;;5051488;28;1323;-70
2021/05/28 00:38:08;;;;;;;;;;;19.90;61.70;;;;;;5053533;28;1129;-70
2021/05/28 00:40:33;;;;;;;;;;;19.90;61.70;;;;;;5052299;28;1902;-70
2021/05/28 00:42:59;;;;;;;;;;;20.00;61.80;;;;;;5052927;28;1047;-70
2021/05/28 00:45:24;;;;;;;;;;;19.90;61.80;;;;;;5052401;28;1279;-70
2021/05/28 00:47:50;;;;;;;;;;;19.90;61.80;;;;;;5052475;28;1047;-70
2021/05/28 00:50:15;;;;;;;;;;;19.90;61.80;;;;;;5052678;28;1123;-70
2021/05/28 00:52:43;;;;;;;;;;;19.90;61.80;;;;;;5053424;28;1154;-70
2021/05/28 00:55:09;;;;;;;;;;;19.90;61.80;;;;;;5052701;28;1289;-71
2021/05/28 00:57:34;;;;;;;;;;;19.90;61.90;;;;;;5052086;28;1045;-70
2021/05/28 01:00:00;;;;;;;;;;;19.90;61.80;;;;;;5050878;28;1150;-70
2021/05/28 01:02:25;;;;;;;;;;;19.90;61.80;;;;;;5051235;28;1971;-70
2021/05/28 01:04:51;;;;;;;;;;;19.90;61.90;;;;;;5051719;28;1060;-71
2021/05/28 01:07:16;;;;;;;;;;;19.90;61.90;;;;;;5052812;28;1237;-70
2021/05/28 01:09:42;;;;;;;;;;;19.90;61.90;;;;;;5052603;28;1091;-70
2021/05/28 01:12:07;;;;;;;;;;;19.90;61.90;;;;;;5052737;28;1114;-70
2021/05/28 01:14:33;;;;;;;;;;;19.90;61.90;;;;;;5050486;28;1060;-70
2021/05/28 01:16:58;;;;;;;;;;;19.90;61.90;;;;;;5047138;28;1624;-71
2021/05/28 01:19:25;;;;;;;;;;;19.90;61.90;;;;;;5051898;28;1135;-71
2021/05/28 01:21:51;;;;;;;;;;;19.90;61.90;;;;;;5046506;28;1910;-70
2021/05/28 01:24:16;;;;;;;;;;;19.90;61.90;;;;;;5052465;28;1142;-70
2021/05/28 01:26:42;;;;;;;;;;;19.90;61.90;;;;;;5051568;28;1203;-70
2021/05/28 01:29:07;;;;;;;;;;;19.90;62.00;;;;;;5050034;28;1194;-71
2021/05/28 01:31:33;;;;;;;;;;;19.90;61.90;;;;;;5052282;28;1173;-70
2021/05/28 01:33:58;;;;;;;;;;;19.90;61.90;;;;;;5052257;28;1098;-70
2021/05/28 01:36:24;;;;;;;;;;;19.90;61.90;;;;;;5050205;28;1573;-71
2021/05/28 01:38:49;;;;;;;;;;;19.90;62.00;;;;;;5051804;28;1210;-70
2021/05/28 01:41:15;;;;;;;;;;;19.90;61.90;;;;;;5052236;28;1961;-71
2021/05/28 01:43:40;;;;;;;;;;;19.90;62.00;;;;;;5051897;28;1163;-71
2021/05/28 01:46:05;;;;;;;;;;;19.90;62.00;;;;;;5049945;28;1271;-70
2021/05/28 01:48:31;;;;;;;;;;;19.90;62.00;;;;;;5051558;28;1174;-71
2021/05/28 01:50:56;;;;;;;;;;;19.90;62.00;;;;;;5050888;28;1103;-71
2021/05/28 01:53:23;;;;;;;;;;;19.90;62.00;;;;;;5052199;28;1119;-71
2021/05/28 01:55:49;;;;;;;;;;;19.90;62.00;;;;;;5049599;28;1282;-71
2021/05/28 01:58:15;;;;;;;;;;;19.80;62.00;;;;;;5051586;28;1043;-71
2021/05/28 02:00:40;;;;;;;;;;;19.90;62.10;;;;;;5051782;28;1898;-70
2021/05/28 02:03:06;;;;;;;;;;;19.90;62.00;;;;;;5050764;28;1124;-71
2021/05/28 02:05:31;;;;;;;;;;;19.90;62.10;;;;;;5051125;28;1296;-71
2021/05/28 02:07:57;;;;;;;;;;;19.90;62.00;;;;;;5048816;28;1269;-70
2021/05/28 02:10:22;;;;;;;;;;;19.80;62.00;;;;;;5050747;28;1207;-71
2021/05/28 02:12:48;;;;;;;;;;;19.80;62.00;;;;;;5051923;28;1214;-70
2021/05/28 02:15:14;;;;;;;;;;;19.80;62.00;;;;;;5050691;28;1357;-71
2021/05/28 02:17:39;;;;;;;;;;;19.90;62.10;;;;;;5051415;28;1119;-71
2021/05/28 02:20:05;;;;;;;;;;;19.90;62.10;;;;;;5047923;28;1118;-70
2021/05/28 02:22:30;;;;;;;;;;;19.90;62.10;;;;;;5063203;28;1957;-71
2021/05/28 02:24:56;;;;;;;;;;;19.90;62.10;;;;;;5049769;28;1222;-72
2021/05/28 02:27:21;;;;;;;;;;;19.90;62.10;;;;;;5050001;28;1236;-71
2021/05/28 02:29:46;;;;;;;;;;;19.90;62.10;;;;;;5047768;28;1306;-70
2021/05/28 02:32:12;;;;;;;;;;;19.80;62.10;;;;;;5050310;28;1327;-70
2021/05/28 02:34:37;;;;;;;;;;;19.80;62.10;;;;;;5050816;28;1322;-71
2021/05/28 02:37:03;;;;;;;;;;;19.80;62.10;;;;;;5049665;28;1385;-71
2021/05/28 02:39:28;;;;;;;;;;;19.80;62.10;;;;;;5049624;28;1215;-73
2021/05/28 02:41:54;;;;;;;;;;;19.80;62.10;;;;;;5049641;28;1893;-71
2021/05/28 02:44:19;;;;;;;;;;;19.80;62.10;;;;;;5049943;28;1366;-71
2021/05/28 02:46:45;;;;;;;;;;;19.80;62.10;;;;;;5049213;28;1369;-71
2021/05/28 02:49:13;;;;;;;;;;;19.80;62.20;;;;;;5050912;28;988;-71
2021/05/28 02:51:38;;;;;;;;;;;19.80;62.10;;;;;;5051553;28;1110;-71
2021/05/28 02:54:04;;;;;;;;;;;19.80;62.10;;;;;;5051671;28;1067;-71
2021/05/28 02:56:29;;;;;;;;;;;19.80;62.20;;;;;;5049755;28;1692;-72
2021/05/28 02:58:55;;;;;;;;;;;19.80;62.90;;;;;;5050839;28;1154;-71
2021/05/28 03:01:20;;;;;;;;;;;19.80;62.20;;;;;;5051965;28;2384;-71
2021/05/28 03:03:45;;;;;;;;;;;19.80;62.20;;;;;;5051785;28;1055;-71
2021/05/28 03:06:11;;;;;;;;;;;19.80;62.20;;;;;;5054356;28;1363;-71
2021/05/28 03:08:36;;;;;;;;;;;19.80;62.20;;;;;;5055040;28;1103;-71
2021/05/28 03:11:02;;;;;;;;;;;19.80;62.20;;;;;;5055255;28;1075;-72
2021/05/28 03:13:27;;;;;;;;;;;19.80;62.20;;;;;;5054843;28;1063;-72
2021/05/28 03:15:53;;;;;;;;;;;19.80;62.20;;;;;;5053972;28;1300;-72
2021/05/28 03:18:21;;;;;;;;;;;19.80;62.30;;;;;;5050273;28;1106;-72
2021/05/28 03:20:48;;;;;;;;;;;19.80;62.20;;;;;;5049691;28;1906;-72
2021/05/28 03:23:14;;;;;;;;;;;19.80;62.20;;;;;;5054501;28;1067;-72
2021/05/28 03:25:40;;;;;;;;;;;19.80;62.20;;;;;;5052716;28;1281;-72
2021/05/28 03:28:05;;;;;;;;;;;19.80;62.30;;;;;;5053785;28;1143;-70
2021/05/28 03:30:31;;;;;;;;;;;19.80;62.30;;;;;;5054914;28;1185;-69
2021/05/28 03:32:56;;;;;;;;;;;19.80;62.20;;;;;;5054759;28;1075;-71
2021/05/28 03:35:22;;;;;;;;;;;19.80;62.30;;;;;;5053759;28;1290;-70
2021/05/28 03:37:47;;;;;;;;;;;19.80;62.30;;;;;;5054563;28;1064;-69
2021/05/28 03:40:13;;;;;;;;;;;19.80;62.10;;;;;;5054288;28;1955;-71
2021/05/28 03:42:38;;;;;;;;;;;19.80;61.90;;;;;;5054008;28;1142;-71
2021/05/28 03:45:04;;;;;;;;;;;19.90;62.00;;;;;;5052892;28;1263;-71
2021/05/28 03:47:30;;;;;;;;;;;19.90;61.90;;;;;;5054575;28;1035;-71
2021/05/28 03:49:55;;;;;;;;;;;20.00;61.80;;;;;;5052930;28;976;-71
2021/05/28 03:52:20;;;;;;;;;;;20.00;61.70;;;;;;5054433;28;1122;-70
2021/05/28 03:54:46;;;;;;;;;;;20.10;61.50;;;;;;5054307;28;1373;-71
2021/05/28 03:57:11;;;;;;;;;;;20.20;61.30;;;;;;5053776;28;1199;-71
2021/05/28 03:59:37;;;;;;;;;;;20.30;61.00;;;;;;5054078;28;1146;-71
2021/05/28 04:02:02;;;;;;;;;;;20.40;60.80;;;;;;5053893;28;1906;-71
2021/05/28 04:04:27;;;;;;;;;;;20.50;60.50;;;;;;5052532;28;1124;-70
2021/05/28 04:06:53;;;;;;;;;;;20.60;60.30;;;;;;5053573;28;1196;-70
2021/05/28 04:09:18;;;;;;;;;;;20.60;60.00;;;;;;5053831;28;1043;-70
2021/05/28 04:11:44;;;;;;;;;;;20.70;59.80;;;;;;5052969;28;1059;-70
2021/05/28 04:14:09;;;;;;;;;;;20.80;59.70;;;;;;5053779;28;1131;-72
2021/05/28 04:16:35;;;;;;;;;;;20.80;59.50;;;;;;5051668;28;1207;-71
2021/05/28 04:19:00;;;;;;;;;;;20.90;59.40;;;;;;5050230;28;1158;-71
2021/05/28 04:21:25;;;;;;;;;;;21.00;59.30;;;;;;5048454;28;1910;-69
2021/05/28 04:23:51;;;;;;;;;;;21.00;59.20;;;;;;5053785;28;1094;-69
2021/05/28 04:26:16;;;;;;;;;;;21.00;59.00;;;;;;5052914;28;1565;-69
2021/05/28 04:28:42;;;;;;;;;;;21.10;59.00;;;;;;5053676;28;1165;-71
2021/05/28 04:31:07;;;;;;;;;;;21.10;58.90;;;;;;5053608;28;1059;-71
2021/05/28 04:33:33;;;;;;;;;;;21.20;58.90;;;;;;5052141;28;1091;-71
2021/05/28 04:35:58;;;;;;;;;;;21.20;58.80;;;;;;5052534;28;1209;-71
2021/05/28 04:38:23;;;;;;;;;;;21.20;59.30;;;;;;5053297;28;1047;-71
2021/05/28 04:40:51;;;;;;;;;;;21.20;58.60;;;;;;5053220;28;1967;-72
2021/05/28 04:43:17;;;;;;;;;;;21.30;58.60;;;;;;5052041;28;1063;-70
2021/05/28 04:45:42;;;;;;;;;;;21.30;58.50;;;;;;5052445;28;1339;-70
2021/05/28 04:48:07;;;;;;;;;;;21.30;58.50;;;;;;5053282;28;1071;-70
2021/05/28 04:50:35;;;;;;;;;;;21.40;58.50;;;;;;5053035;28;1051;-69
2021/05/28 04:53:01;;;;;;;;;;;21.40;58.40;;;;;;5053850;28;1149;-72
2021/05/28 04:55:27;;;;;;;;;;;21.40;58.40;;;;;;5052687;28;1370;-71
2021/05/28 04:57:52;;;;;;;;;;;21.40;58.30;;;;;;5051532;28;1174;-71
2021/05/28 05:00:18;;;;;;;;;;;21.40;58.30;;;;;;5052531;28;1906;-70
2021/05/28 05:02:43;;;;;;;;;;;21.50;58.30;;;;;;5053360;28;1114;-70
2021/05/28 05:05:09;;;;;;;;;;;21.50;58.30;;;;;;5052644;28;1255;-71
2021/05/28 05:07:34;;;;;;;;;;;21.50;58.20;;;;;;5052585;28;1058;-71
2021/05/28 05:10:00;;;;;;;;;;;21.50;58.20;;;;;;5052541;28;1079;-71
2021/05/28 05:12:25;;;;;;;;;;;21.50;58.20;;;;;;5052734;28;1079;-71
2021/05/28 05:14:51;;;;;;;;;;;21.50;58.20;;;;;;5051971;28;1193;-70
2021/05/28 05:17:16;;;;;;;;;;;21.50;58.10;;;;;;5047523;28;1200;-72
2021/05/28 05:19:42;;;;;;;;;;;21.50;58.10;;;;;;5052193;28;1051;-72
2021/05/28 05:22:07;;;;;;;;;;;21.60;58.10;;;;;;5046929;28;1902;-72
2021/05/28 05:24:33;;;;;;;;;;;21.60;58.20;;;;;;5050390;28;1076;-72
2021/05/28 05:26:58;;;;;;;;;;;21.60;58.20;;;;;;5051802;28;1207;-71
2021/05/28 05:29:24;;;;;;;;;;;21.60;58.20;;;;;;5051408;28;1115;-71
2021/05/28 05:31:49;;;;;;;;;;;21.60;58.10;;;;;;5052516;28;1181;-71
2021/05/28 05:34:15;;;;;;;;;;;21.60;58.10;;;;;;5052381;28;1044;-72
2021/05/28 05:36:40;;;;;;;;;;;21.60;58.10;;;;;;5049547;28;1305;-70
2021/05/28 05:39:08;;;;;;;;;;;21.60;58.10;;;;;;5051896;28;1055;-71
2021/05/28 05:41:34;;;;;;;;;;;21.60;58.20;;;;;;5051036;28;1902;-70
2021/05/28 05:44:00;;;;;;;;;;;21.60;58.20;;;;;;5052140;28;1099;-70
2021/05/28 05:46:25;;;;;;;;;;;21.50;58.20;;;;;;5051755;28;1361;-71
2021/05/28 05:48:51;;;;;;;;;;;21.50;58.30;;;;;;5052363;28;1078;-71
2021/05/28 05:51:16;;;;;;;;;;;21.50;58.30;;;;;;5052053;28;1138;-70
2021/05/28 05:53:41;;;;;;;;;;;21.50;58.30;;;;;;5052348;28;1071;-70
2021/05/28 05:56:07;;;;;;;;;;;21.50;58.30;;;;;;5051283;28;1348;-69
2021/05/28 05:58:32;;;;;;;;;;;21.50;58.40;;;;;;5051981;28;1035;-70
2021/05/28 06:00:58;;;;;;;;;;;21.50;58.40;;;;;;5051881;28;1955;-70
2021/05/28 06:03:23;;;;;;;;;;;21.50;58.50;;;;;;5052114;28;1063;-69
2021/05/28 06:05:48;;;;;;;;;;;21.40;58.50;;;;;;5050917;28;1203;-70
2021/05/28 06:08:14;;;;;;;;;;;21.40;58.60;;;;;;5051932;28;1278;-70
2021/05/28 06:10:39;;;;;;;;;;;21.40;58.60;;;;;;5051822;28;1218;-69
2021/05/28 06:13:08;;;;;;;;;;;21.40;58.60;;;;;;5039446;28;2335;-71
2021/05/28 06:15:33;;;;;;;;;;;21.40;58.70;;;;;;5051612;28;2137;-71
2021/05/28 06:17:59;;;;;;;;;;;21.40;58.70;;;;;;5054333;28;1287;-71
2021/05/28 06:20:24;;;;;;;;;;;21.40;58.80;;;;;;5050905;28;1915;-69
2021/05/28 06:22:50;;;;;;;;;;;21.30;58.80;;;;;;5051131;28;1354;-69
2021/05/28 06:25:15;;;;;;;;;;;21.30;58.80;;;;;;5049892;28;1290;-67
2021/05/28 06:27:41;;;;;;;;;;;21.30;58.90;;;;;;5050638;28;1143;-68
2021/05/28 06:30:07;;;;;;;;;;;21.30;58.90;;;;;;5049271;28;1075;-68
2021/05/28 06:32:32;;;;;;;;;;;21.30;58.90;;;;;;5051113;28;1043;-67
2021/05/28 06:34:58;;;;;;;;;;;21.30;59.00;;;;;;5050193;28;1385;-68
2021/05/28 06:37:23;;;;;;;;;;;21.20;58.90;;;;;;5050885;28;1067;-67
2021/05/28 06:39:48;;;;;;;;;;;21.20;59.00;;;;;;5052104;28;1125;-68
2021/05/28 06:42:14;;;;;;;;;;;21.20;59.00;;;;;;5054404;28;1965;-67
2021/05/28 06:44:39;;;;;;;;;;;21.20;59.10;;;;;;5053574;28;1114;-69
2021/05/28 06:47:05;;;;;;;;;;;21.20;59.10;;;;;;5054664;28;1211;-69
2021/05/28 06:49:30;;;;;;;;;;;21.20;59.10;;;;;;5054186;28;1051;-70
2021/05/28 06:51:56;;;;;;;;;;;21.20;59.10;;;;;;5055665;28;1355;-72
2021/05/28 06:54:21;;;;;;;;;;;21.20;59.20;;;;;;5055096;28;1375;-72
2021/05/28 06:56:46;;;;;;;;;;;21.20;59.20;;;;;;5054642;28;1222;-72
2021/05/28 06:59:12;;;;;;;;;;;21.20;59.30;;;;;;5054998;28;1067;-72
2021/05/28 07:01:37;;;;;;;;;;;21.20;59.30;;;;;;5055335;28;1894;-73
2021/05/28 07:04:04;;;;;;;;;;;21.10;59.30;;;;;;5054348;28;1059;-73
2021/05/28 07:06:29;;;;;;;;;;;21.10;59.30;;;;;;5054449;28;1229;-73
2021/05/28 07:08:55;;;;;;;;;;;21.10;59.40;;;;;;5053721;28;1214;-71
2021/05/28 07:11:20;;;;;;;;;;;21.10;59.40;;;;;;5054774;28;1134;-72
2021/05/28 07:13:46;;;;;;;;;;;21.10;59.40;;;;;;5053836;28;1095;-72
2021/05/28 07:16:11;;;;;;;;;;;21.10;60.00;;;;;;5054002;28;1288;-72
2021/05/28 07:18:37;;;;;;;;;;;21.10;59.50;;;;;;5049480;28;1102;-72
2021/05/28 07:21:02;;;;;;;;;;;21.10;59.50;;;;;;5049813;28;1906;-72
2021/05/28 07:23:29;;;;;;;;;;;21.10;59.50;;;;;;5054846;28;1099;-72
2021/05/28 07:25:55;;;;;;;;;;;21.00;59.50;;;;;;5054229;28;1248;-72
2021/05/28 07:28:20;;;;;;;;;;;21.00;59.50;;;;;;5054932;28;1165;-72
2021/05/28 07:30:47;;;;;;;;;;;21.00;59.60;;;;;;5055001;28;1118;-73
2021/05/28 07:33:13;;;;;;;;;;;21.00;59.60;;;;;;5055199;28;1141;-72
2021/05/28 07:35:38;;;;;;;;;;;21.00;59.60;;;;;;5052732;28;1357;-72
2021/05/28 07:38:03;;;;;;;;;;;21.00;59.70;;;;;;5052755;28;1088;-73
2021/05/28 07:40:29;;;;;;;;;;;21.00;59.70;;;;;;5054229;28;1894;-73
2021/05/28 07:42:54;;;;;;;;;;;21.00;59.70;;;;;;5054453;28;1047;-73
2021/05/28 07:45:20;;;;;;;;;;;21.00;59.70;;;;;;5053866;28;1339;-74
2021/05/28 07:47:45;;;;;;;;;;;20.90;59.70;;;;;;5053527;28;1071;-70
2021/05/28 07:50:11;;;;;;;;;;;20.90;59.80;;;;;;5052359;28;1194;-70
2021/05/28 07:52:37;;;;;;;;;;;20.90;59.80;;;;;;5054048;28;1067;-70
2021/05/28 07:55:02;;;;;;;;;;;20.90;59.80;;;;;;5053878;28;1339;-72
2021/05/28 07:57:28;;;;;;;;;;;20.90;59.80;;;;;;5054988;28;1417;-71
2021/05/28 07:59:53;;;;;;;;;;;20.90;59.90;;;;;;5054237;28;1209;-71
2021/05/28 08:02:19;;;;;;;;;;;20.90;59.90;;;;;;5054671;28;1969;-71
2021/05/28 08:04:44;;;;;;;;;;;20.90;60.00;;;;;;5053788;28;1814;-71
2021/05/28 08:07:10;;;;;;;;;;;20.80;59.90;;;;;;5054118;28;1339;-71
2021/05/28 08:09:35;;;;;;;;;;;20.90;60.00;;;;;;5054175;28;1381;-71
2021/05/28 08:12:01;;;;;;;;;;;20.80;60.00;;;;;;5054080;28;1433;-71
2021/05/28 08:14:26;;;;;;;;;;;20.80;60.00;;;;;;5053604;28;1015;-71
2021/05/28 08:16:52;;;;;;;;;;;20.80;60.10;;;;;;5050167;28;1258;-71
2021/05/28 08:19:17;;;;;;;;;;;20.80;60.10;;;;;;5052474;28;1312;-71
2021/05/28 08:21:42;;;;;;;;;;;20.80;60.10;;;;;;5042088;28;1979;-73
2021/05/28 08:24:08;;;;;;;;;;;20.80;60.10;;;;;;5053370;28;1384;-73
2021/05/28 08:26:33;;;;;;;;;;;20.80;60.10;;;;;;5040988;28;1200;-73
2021/05/28 08:28:59;;;;;;;;;;;20.80;60.10;;;;;;5068275;28;1313;-73
2021/05/28 08:31:24;;;;;;;;;;;20.80;60.10;;;;;;5054059;28;804;-73
2021/05/28 08:33:50;;;;;;;;;;;20.80;60.20;;;;;;5049115;28;1025;-73
2021/05/28 08:36:15;;;;;;;;;;;20.80;60.20;;;;;;5044854;28;1325;-73
2021/05/28 08:38:41;;;;;;;;;;;20.70;60.20;;;;;;5053601;28;1382;-73
2021/05/28 08:41:07;;;;;;;;;;;20.80;60.30;;;;;;5053144;28;1906;-72
2021/05/28 08:43:33;;;;;;;;;;;20.70;60.20;;;;;;5051835;28;1717;-72
2021/05/28 08:46:01;;;;;;;;;;;20.70;60.20;;;;;;5051249;28;1426;-72
2021/05/28 08:48:27;;;;;;;;;;;20.70;60.20;;;;;;5053310;28;1534;-71
2021/05/28 08:50:52;;;;;;;;;;;20.70;60.30;;;;;;5052877;28;1565;-71
2021/05/28 08:53:18;;;;;;;;;;;20.70;60.30;;;;;;5053016;28;1661;-71
2021/05/28 08:55:43;;;;;;;;;;;20.70;60.30;;;;;;5051196;28;1683;-71
2021/05/28 08:58:13;;;;;;;;;;;20.70;60.30;;;;;;5053193;28;1488;-71
2021/05/28 09:00:38;;;;;;;;;;;20.70;60.30;;;;;;5052633;28;1929;-72
2021/05/28 09:03:16;;;;;;;;;;;20.70;60.40;;;;;;5051137;28;1430;-71
2021/05/28 09:05:41;;;;;;;;;;;20.70;60.40;;;;;;5051070;28;1460;-70
2021/05/28 09:08:06;;;;;;;;;;;20.70;60.40;;;;;;5052946;28;2645;-70
2021/05/28 09:10:33;;;;;;;;;;;20.70;60.50;;;;;;5065691;28;1506;-71
2021/05/28 09:13:14;;;;;;;;;;;20.70;60.60;;;;;;5056591;28;2107;-72
2021/05/28 09:15:40;;;;;;;;;;;20.70;60.60;;;;;;5051120;28;2020;-71
2021/05/28 09:18:05;;;;;;;;;;;20.70;60.70;;;;;;5047183;28;1337;-72
2021/05/28 09:20:31;;;;;;;;;;;20.70;60.70;;;;;;5054235;28;1976;-71
2021/05/28 09:23:06;;;;;;;;;;;20.70;60.70;;;;;;5050936;28;1737;-71
2021/05/28 09:25:50;;;;;;;;;;;20.70;60.70;;;;;;5051222;28;1271;-70
2021/05/28 09:28:16;;;;;;;;;;;20.70;60.70;;;;;;5052365;28;2001;-70
2021/05/28 09:30:41;;;;;;;;;;;20.60;60.60;;;;;;5055491;28;1316;-73
2021/05/28 09:33:07;;;;;;;;;;;20.70;60.70;;;;;;5056888;28;1332;-71
2021/05/28 09:35:32;;;;;;;;;;;20.60;60.60;;;;;;5049145;28;1454;-73
2021/05/28 09:37:57;;;;;;;;;;;20.60;60.60;;;;;;5052218;28;1099;-73
2021/05/28 09:40:27;;;;;;;;;;;20.60;60.60;;;;;;5051109;28;1421;-70
2021/05/28 09:42:53;;;;;;;;;;;20.60;60.70;;;;;;5067667;28;1405;-70
2021/05/28 09:45:20;;;;;;;;;;;20.60;60.70;;;;;;5051595;28;1380;-70
2021/05/28 09:47:45;;;;;;;;;;;20.60;61.50;;;;;;5051362;28;1606;-70
2021/05/28 09:50:12;;;;;;;;;;;20.60;60.70;;;;;;5051658;28;1352;-70
2021/05/28 09:52:37;;;;;;;;;;;20.60;60.70;;;;;;5052602;28;1351;-70
2021/05/28 09:55:04;;;;;;;;;;;20.60;60.80;;;;;;5051628;28;1580;-70
2021/05/28 09:57:30;;;;;;;;;;;20.60;60.80;;;;;;5051145;28;870;-70
2021/05/28 09:59:56;;;;;;;;;;;20.60;60.80;;;;;;5050632;28;1303;-70
2021/05/28 10:02:25;;;;;;;;;;;20.60;60.80;;;;;;5051429;28;2062;-70
2021/05/28 10:04:51;;;;;;;;;;;20.60;60.80;;;;;;5066649;28;1607;-70
2021/05/28 10:07:16;;;;;;;;;;;20.60;60.90;;;;;;5062559;28;1735;-70
2021/05/28 10:09:42;;;;;;;;;;;20.60;60.80;;;;;;5052132;28;1174;-70
2021/05/28 10:12:07;;;;;;;;;;;20.60;60.80;;;;;;5051278;28;1618;-70
2021/05/28 10:14:33;;;;;;;;;;;20.60;60.80;;;;;;5041504;28;1448;-70
2021/05/28 10:16:58;;;;;;;;;;;20.60;60.80;;;;;;5060203;28;1919;-70
2021/05/28 10:19:23;;;;;;;;;;;20.60;60.80;;;;;;5045183;28;1776;-71
2021/05/28 10:21:49;;;;;;;;;;;20.60;61.60;;;;;;5051100;28;1979;-71
2021/05/28 10:24:15;;;;;;;;;;;20.60;60.80;;;;;;5056737;28;1698;-71
2021/05/28 10:26:42;;;;;;;;;;;20.60;60.80;;;;;;5053960;28;1337;-70
2021/05/28 10:29:08;;;;;;;;;;;20.60;60.80;;;;;;5054788;28;1467;-70
2021/05/28 10:31:51;;;;;;;;;;;20.60;60.90;;;;;;5054904;28;1663;-70
2021/05/28 10:34:17;;;;;;;;;;;20.60;60.90;;;;;;5044732;28;1640;-70
2021/05/28 10:36:42;;;;;;;;;;;20.60;60.90;;;;;;5055190;28;1341;-70
2021/05/28 10:39:08;;;;;;;;;;;20.60;60.90;;;;;;5056010;28;1672;-70
2021/05/28 10:41:34;;;;;;;;;;;20.60;60.90;;;;;;5055771;28;1938;-70
2021/05/28 10:44:01;;;;;;;;;;;20.50;60.80;;;;;;5055788;28;1349;-70
2021/05/28 10:46:27;;;;;;;;;;;20.60;60.90;;;;;;5053640;28;1287;-70
2021/05/28 10:48:55;;;;;;;;;;;20.60;60.90;;;;;;5054389;28;785;-70
2021/05/28 10:51:22;;;;;;;;;;;20.60;60.90;;;;;;5055657;28;1351;-70
2021/05/28 10:53:50;;;;;;;;;;;20.60;60.90;;;;;;5055853;28;1157;-70
2021/05/28 10:56:16;;;;;;;;;;;20.60;60.80;;;;;;5054436;28;1531;-70
2021/05/28 10:58:54;;;;;;;;;;;20.60;60.90;;;;;;5054486;28;1030;-70
2021/05/28 11:01:35;;;;;;;;;;;20.60;60.90;;;;;;5055258;28;1890;-70
2021/05/28 11:04:03;;;;;;;;;;;20.60;60.90;;;;;;5055543;28;1580;-70
2021/05/28 11:06:29;;;;;;;;;;;20.50;60.80;;;;;;5052610;28;1733;-71
2021/05/28 11:09:04;;;;;;;;;;;20.60;60.90;;;;;;5055512;28;1408;-71
2021/05/28 11:11:35;;;;;;;;;;;20.60;60.80;;;;;;5054172;28;1748;-71
2021/05/28 11:14:03;;;;;;;;;;;20.60;61.60;;;;;;5055038;28;1686;-72
2021/05/28 11:16:28;;;;;;;;;;;20.60;61.00;;;;;;5052533;28;1398;-71
2021/05/28 11:18:54;;;;;;;;;;;20.70;61.30;;;;;;5049750;28;1392;-71
2021/05/28 11:21:20;;;;;;;;;;;20.70;61.60;;;;;;5049451;28;1985;-72
2021/05/28 11:23:46;;;;;;;;;;;20.70;61.50;;;;;;5053312;28;1322;-71
2021/05/28 11:26:15;;;;;;;;;;;20.70;61.70;;;;;;5048709;28;1514;-71
2021/05/28 11:28:51;;;;;;;;;;;20.80;62.00;;;;;;5051685;28;1477;-72
2021/05/28 11:31:18;;;;;;;;;;;20.80;62.20;;;;;;5051647;28;1242;-72
2021/05/28 11:33:44;;;;;;;;;;;20.80;62.20;;;;;;5052779;28;1446;-73
2021/05/28 11:36:24;;;;;;;;;;;20.80;62.20;;;;;;5058484;28;1284;-72
2021/05/28 11:39:00;;;;;;;;;;;20.80;62.20;;;;;;5051337;28;1989;-72
2021/05/28 11:41:44;;;;;;;;;;;20.80;62.00;;;;;;5061492;28;1894;-73
2021/05/28 11:44:10;;;;;;;;;;;20.80;61.70;;;;;;5055666;28;1371;-72
2021/05/28 11:46:37;;;;;;;;;;;20.80;61.80;;;;;;5063938;28;1587;-72
2021/05/28 11:49:02;;;;;;;;;;;20.70;61.70;;;;;;5053947;28;1328;-72
2021/05/28 11:51:28;;;;;;;;;;;20.70;61.80;;;;;;5053858;28;1408;-72
2021/05/28 11:53:53;;;;;;;;;;;20.60;61.80;;;;;;5052921;28;1384;-72
2021/05/28 11:56:22;;;;;;;;;;;20.70;61.80;;;;;;5066892;28;1506;-71
2021/05/28 11:58:49;;;;;;;;;;;20.70;61.80;;;;;;5063058;28;1388;-72
2021/05/28 12:01:14;;;;;;;;;;;20.70;61.80;;;;;;5052459;28;1990;-71
2021/05/28 12:03:40;;;;;;;;;;;20.70;61.90;;;;;;5052158;28;1545;-72
2021/05/28 12:06:06;;;;;;;;;;;20.60;61.80;;;;;;5051659;28;1649;-72
2021/05/28 12:08:31;;;;;;;;;;;20.60;61.80;;;;;;5052840;28;1673;-72
2021/05/28 12:10:58;;;;;;;;;;;20.60;61.80;;;;;;5053246;28;1416;-72
2021/05/28 12:13:23;;;;;;;;;;;20.60;61.80;;;;;;5052736;28;1568;-72
2021/05/28 12:15:56;;;;;;;;;;;20.60;61.80;;;;;;5051717;28;1492;-72
2021/05/28 12:18:21;;;;;;;;;;;20.60;61.80;;;;;;5048044;28;1371;-72
2021/05/28 12:20:51;;;;;;;;;;;20.50;61.80;;;;;;5047896;28;1961;-71
2021/05/28 12:23:17;;;;;;;;;;;20.50;61.80;;;;;;5053577;28;1573;-72
2021/05/28 12:25:46;;;;;;;;;;;20.50;61.80;;;;;;5052301;28;1284;-72
2021/05/28 12:28:26;;;;;;;;;;;20.50;61.80;;;;;;5052843;28;1255;-73
2021/05/28 12:30:52;;;;;;;;;;;20.50;61.80;;;;;;5050959;28;1157;-71
2021/05/28 12:33:18;;;;;;;;;;;20.50;61.80;;;;;;5052125;28;1278;-73
2021/05/28 12:35:48;;;;;;;;;;;20.50;61.80;;;;;;5031322;28;1530;-73
2021/05/28 12:38:13;;;;;;;;;;;20.50;61.80;;;;;;5053239;28;1071;-71
2021/05/28 12:40:43;;;;;;;;;;;20.50;61.80;;;;;;5052980;28;2243;-72
2021/05/28 12:43:08;;;;;;;;;;;20.40;61.70;;;;;;5059699;28;1550;-71
2021/05/28 12:45:35;;;;;;;;;;;20.40;61.70;;;;;;5051804;28;1234;-72
2021/05/28 12:48:00;;;;;;;;;;;20.40;61.80;;;;;;5043532;28;2264;-71
2021/05/28 12:50:36;;;;;;;;;;;20.40;61.80;;;;;;5061147;28;1773;-72
2021/05/28 12:53:14;;;;;;;;;;;20.40;61.80;;;;;;5062245;28;1670;-72
2021/05/28 12:55:41;;;;;;;;;;;20.40;61.80;;;;;;5040544;28;1524;-71
2021/05/28 12:58:22;;;;;;;;;;;20.40;61.80;;;;;;5052008;28;1711;-71
2021/05/28 13:00:58;;;;;;;;;;;20.40;61.80;;;;;;5052064;28;1898;-71
2021/05/28 13:03:30;;;;;;;;;;;20.40;61.80;;;;;;5052021;28;1067;-71
2021/05/28 13:05:55;;;;;;;;;;;20.40;61.80;;;;;;5051601;28;1704;-71
2021/05/28 13:08:29;;;;;;;;;;;20.30;61.80;;;;;;5052097;28;1654;-71
2021/05/28 13:10:57;;;;;;;;;;;20.40;61.90;;;;;;5052959;28;1712;-71
2021/05/28 13:13:23;;;;;;;;;;;20.40;61.90;;;;;;5052858;28;1453;-71
2021/05/28 13:15:49;;;;;;;;;;;20.40;61.90;;;;;;5050581;28;1446;-71
2021/05/28 13:18:15;;;;;;;;;;;20.40;61.90;;;;;;5045987;28;1423;-71
2021/05/28 13:20:41;;;;;;;;;;;20.40;61.90;;;;;;5047713;28;1914;-71
2021/05/28 13:23:20;;;;;;;;;;;20.30;62.00;;;;;;5052974;28;1359;-71
2021/05/28 13:25:47;;;;;;;;;;;20.40;63.20;;;;;;5046261;28;2109;-71
2021/05/28 13:28:12;;;;;;;;;;;20.40;63.80;;;;;;5050455;28;1626;-71
2021/05/28 13:30:39;;;;;;;;;;;20.40;63.30;;;;;;5051543;28;1374;-71
2021/05/28 13:33:14;;;;;;;;;;;20.40;63.00;;;;;;5050989;28;1448;-71
2021/05/28 13:35:40;;;;;;;;;;;20.40;63.00;;;;;;5050085;28;1291;-71
2021/05/28 13:38:05;;;;;;;;;;;20.40;63.00;;;;;;5052251;28;1467;-71
2021/05/28 13:40:31;;;;;;;;;;;20.40;63.00;;;;;;5050616;28;1428;-71
2021/05/28 13:42:56;;;;;;;;;;;20.40;63.00;;;;;;5050843;28;2187;-71
2021/05/28 13:45:22;;;;;;;;;;;20.40;62.90;;;;;;5033632;28;1523;-71
2021/05/28 13:47:47;;;;;;;;;;;20.30;62.80;;;;;;5047288;28;1227;-71
2021/05/28 13:50:13;;;;;;;;;;;20.30;62.70;;;;;;5051243;28;1549;-71
2021/05/28 13:52:38;;;;;;;;;;;20.30;62.70;;;;;;5051369;28;1604;-71
2021/05/28 13:55:04;;;;;;;;;;;20.30;62.60;;;;;;5051225;28;1337;-71
2021/05/28 13:57:32;;;;;;;;;;;20.30;62.60;;;;;;5050404;28;1671;-71
2021/05/28 13:59:58;;;;;;;;;;;20.30;62.60;;;;;;5052281;28;1252;-71
2021/05/28 14:02:23;;;;;;;;;;;20.30;62.60;;;;;;5051730;28;1957;-71
2021/05/28 14:04:49;;;;;;;;;;;20.30;62.60;;;;;;5050591;28;1209;-70
2021/05/28 14:07:15;;;;;;;;;;;20.30;62.60;;;;;;5050688;28;1359;-71
2021/05/28 14:09:40;;;;;;;;;;;20.30;62.60;;;;;;5049353;28;1318;-70
2021/05/28 14:12:06;;;;;;;;;;;20.30;62.60;;;;;;5051994;28;1009;-71
2021/05/28 14:14:31;;;;;;;;;;;20.30;62.60;;;;;;5052453;28;1222;-72
2021/05/28 14:16:57;;;;;;;;;;;20.30;62.60;;;;;;5051991;28;1280;-72
2021/05/28 14:19:22;;;;;;;;;;;20.30;62.60;;;;;;5052369;28;787;-72
2021/05/28 14:21:48;;;;;;;;;;;20.30;62.60;;;;;;5046990;28;1913;-72
2021/05/28 14:24:13;;;;;;;;;;;20.30;62.60;;;;;;5046456;28;811;-70
2021/05/28 14:26:41;;;;;;;;;;;20.20;62.50;;;;;;5031689;28;1304;-71